sensor_id;sensor_type;location;lat;lon;timestamp;P1;durP1;ratioP1;P2;durP2;ratioP2
20844;SDS011;10583;49.084;8.646;2022-09-13T00:01:14;2.97;;;2.97;;
20844;SDS011;10583;49.084;8.646;2022-09-13T00:03:42;2.93;;;2.93;;
20844;SDS011;10583;49.084;8.646;2022-09-13T00:06:10;3.20;;;3.20;;
20844;SDS011;10583;49.084;8.646;2022-09-13T00:08:38;3.00;;;3.00;;
20844;SDS011;10583;49.084;8.646;2022-09-13T00:11:05;3.30;;;3.30;;
20844;SDS011;10583;49.084;8.646;2022-09-13T00:13:32;3.17;;;3.17;;
20844;SDS011;10583;49.084;8.646;2022-09-13T00:15:59;3.13;;;3.13;;
20844;SDS011;10583;49.084;8.646;2022-09-13T00:18:27;3.13;;;3.13;;
20844;SDS011;10583;49.084;8.646;2022-09-13T00:21:04;3.27;;;3.27;;
20844;SDS011;10583;49.084;8.646;2022-09-13T00:23:31;3.30;;;3.30;;
20844;SDS011;10583;49.084;8.646;2022-09-13T00:26:02;2.90;;;2.90;;
20844;SDS011;10583;49.084;8.646;2022-09-13T00:28:32;2.63;;;2.63;;
20844;SDS011;10583;49.084;8.646;2022-09-13T00:30:59;3.07;;;3.07;;
20844;SDS011;10583;49.084;8.646;2022-09-13T00:33:26;3.20;;;3.20;;
20844;SDS011;10583;49.084;8.646;2022-09-13T00:35:53;2.93;;;2.93;;
20844;SDS011;10583;49.084;8.646;2022-09-13T00:38:21;3.00;;;3.00;;
20844;SDS011;10583;49.084;8.646;2022-09-13T00:40:48;3.50;;;3.50;;
20844;SDS011;10583;49.084;8.646;2022-09-13T00:43:15;3.20;;;3.20;;
20844;SDS011;10583;49.084;8.646;2022-09-13T00:45:43;3.10;;;3.10;;
20844;SDS011;10583;49.084;8.646;2022-09-13T00:48:12;3.20;;;3.20;;
20844;SDS011;10583;49.084;8.646;2022-09-13T00:50:45;3.40;;;3.40;;
20844;SDS011;10583;49.084;8.646;2022-09-13T00:53:15;3.03;;;3.03;;
20844;SDS011;10583;49.084;8.646;2022-09-13T00:55:49;2.87;;;2.87;;
20844;SDS011;10583;49.084;8.646;2022-09-13T00:58:19;3.20;;;3.20;;
20844;SDS011;10583;49.084;8.646;2022-09-13T01:00:48;2.90;;;2.90;;
20844;SDS011;10583;49.084;8.646;2022-09-13T01:03:16;2.97;;;2.97;;
20844;SDS011;10583;49.084;8.646;2022-09-13T01:05:47;3.00;;;3.00;;
20844;SDS011;10583;49.084;8.646;2022-09-13T01:08:17;3.80;;;3.80;;
20844;SDS011;10583;49.084;8.646;2022-09-13T01:10:46;3.00;;;3.00;;
20844;SDS011;10583;49.084;8.646;2022-09-13T01:13:17;3.03;;;3.03;;
20844;SDS011;10583;49.084;8.646;2022-09-13T01:15:46;3.10;;;3.10;;
20844;SDS011;10583;49.084;8.646;2022-09-13T01:18:12;3.20;;;3.20;;
20844;SDS011;10583;49.084;8.646;2022-09-13T01:20:44;3.57;;;3.57;;
20844;SDS011;10583;49.084;8.646;2022-09-13T01:29:41;3.27;;;3.27;;
20844;SDS011;10583;49.084;8.646;2022-09-13T01:32:44;3.37;;;3.37;;
20844;SDS011;10583;49.084;8.646;2022-09-13T01:35:37;3.17;;;3.17;;
20844;SDS011;10583;49.084;8.646;2022-09-13T01:38:16;3.37;;;3.37;;
20844;SDS011;10583;49.084;8.646;2022-09-13T01:40:57;2.80;;;2.80;;
20844;SDS011;10583;49.084;8.646;2022-09-13T01:43:35;3.50;;;3.50;;
20844;SDS011;10583;49.084;8.646;2022-09-13T01:46:08;3.30;;;3.30;;
20844;SDS011;10583;49.084;8.646;2022-09-13T01:48:46;3.40;;;3.40;;
20844;SDS011;10583;49.084;8.646;2022-09-13T01:51:22;2.90;;;2.90;;
20844;SDS011;10583;49.084;8.646;2022-09-13T01:53:57;3.00;;;3.00;;
20844;SDS011;10583;49.084;8.646;2022-09-13T01:56:32;3.50;;;3.50;;
20844;SDS011;10583;49.084;8.646;2022-09-13T01:59:05;3.40;;;3.40;;
20844;SDS011;10583;49.084;8.646;2022-09-13T02:01:39;3.17;;;3.17;;
20844;SDS011;10583;49.084;8.646;2022-09-13T02:04:12;3.60;;;3.60;;
20844;SDS011;10583;49.084;8.646;2022-09-13T02:06:44;3.30;;;3.30;;
20844;SDS011;10583;49.084;8.646;2022-09-13T02:09:15;3.57;;;3.57;;
20844;SDS011;10583;49.084;8.646;2022-09-13T02:11:47;3.57;;;3.57;;
20844;SDS011;10583;49.084;8.646;2022-09-13T02:14:17;3.40;;;3.40;;
20844;SDS011;10583;49.084;8.646;2022-09-13T02:16:47;3.20;;;3.20;;
20844;SDS011;10583;49.084;8.646;2022-09-13T02:19:20;3.27;;;3.27;;
20844;SDS011;10583;49.084;8.646;2022-09-13T02:21:53;3.80;;;3.80;;
20844;SDS011;10583;49.084;8.646;2022-09-13T02:24:25;3.23;;;3.23;;
20844;SDS011;10583;49.084;8.646;2022-09-13T02:26:56;3.27;;;3.27;;
20844;SDS011;10583;49.084;8.646;2022-09-13T02:29:27;3.30;;;3.30;;
20844;SDS011;10583;49.084;8.646;2022-09-13T02:31:58;3.60;;;3.60;;
20844;SDS011;10583;49.084;8.646;2022-09-13T02:34:32;4.07;;;4.07;;
20844;SDS011;10583;49.084;8.646;2022-09-13T02:37:03;3.57;;;3.57;;
20844;SDS011;10583;49.084;8.646;2022-09-13T02:39:32;3.50;;;3.50;;
20844;SDS011;10583;49.084;8.646;2022-09-13T02:42:03;3.70;;;3.70;;
20844;SDS011;10583;49.084;8.646;2022-09-13T02:44:37;3.10;;;3.10;;
20844;SDS011;10583;49.084;8.646;2022-09-13T02:47:10;3.40;;;3.40;;
20844;SDS011;10583;49.084;8.646;2022-09-13T02:49:51;3.30;;;3.30;;
20844;SDS011;10583;49.084;8.646;2022-09-13T02:52:26;3.43;;;3.43;;
20844;SDS011;10583;49.084;8.646;2022-09-13T02:55:04;4.03;;;4.03;;
20844;SDS011;10583;49.084;8.646;2022-09-13T02:57:39;3.60;;;3.60;;
20844;SDS011;10583;49.084;8.646;2022-09-13T03:00:14;3.43;;;3.43;;
20844;SDS011;10583;49.084;8.646;2022-09-13T03:02:40;3.70;;;3.70;;
20844;SDS011;10583;49.084;8.646;2022-09-13T03:05:11;2.90;;;2.90;;
20844;SDS011;10583;49.084;8.646;2022-09-13T03:07:38;3.30;;;3.30;;
20844;SDS011;10583;49.084;8.646;2022-09-13T03:10:05;3.30;;;3.30;;
20844;SDS011;10583;49.084;8.646;2022-09-13T03:15:51;3.30;;;3.30;;
20844;SDS011;10583;49.084;8.646;2022-09-13T03:18:32;3.20;;;3.20;;
20844;SDS011;10583;49.084;8.646;2022-09-13T03:21:17;3.30;;;3.30;;
20844;SDS011;10583;49.084;8.646;2022-09-13T03:24:04;3.00;;;3.00;;
20844;SDS011;10583;49.084;8.646;2022-09-13T03:26:41;2.83;;;2.83;;
20844;SDS011;10583;49.084;8.646;2022-09-13T03:29:18;3.50;;;3.50;;
20844;SDS011;10583;49.084;8.646;2022-09-13T03:31:55;3.23;;;3.23;;
20844;SDS011;10583;49.084;8.646;2022-09-13T03:34:37;3.37;;;3.37;;
20844;SDS011;10583;49.084;8.646;2022-09-13T03:37:16;3.77;;;3.77;;
20844;SDS011;10583;49.084;8.646;2022-09-13T03:39:49;3.40;;;3.40;;
20844;SDS011;10583;49.084;8.646;2022-09-13T03:42:21;3.33;;;3.33;;
20844;SDS011;10583;49.084;8.646;2022-09-13T03:44:51;4.03;;;4.03;;
20844;SDS011;10583;49.084;8.646;2022-09-13T03:47:20;4.70;;;4.70;;
20844;SDS011;10583;49.084;8.646;2022-09-13T03:49:49;4.00;;;4.00;;
20844;SDS011;10583;49.084;8.646;2022-09-13T03:52:19;3.57;;;3.57;;
20844;SDS011;10583;49.084;8.646;2022-09-13T03:54:45;3.73;;;3.73;;
20844;SDS011;10583;49.084;8.646;2022-09-13T03:57:13;3.37;;;3.37;;
20844;SDS011;10583;49.084;8.646;2022-09-13T03:59:42;3.17;;;3.17;;
20844;SDS011;10583;49.084;8.646;2022-09-13T04:02:11;3.00;;;3.00;;
20844;SDS011;10583;49.084;8.646;2022-09-13T04:04:39;3.23;;;3.23;;
20844;SDS011;10583;49.084;8.646;2022-09-13T04:07:07;3.07;;;3.07;;
20844;SDS011;10583;49.084;8.646;2022-09-13T04:09:36;3.13;;;3.13;;
20844;SDS011;10583;49.084;8.646;2022-09-13T04:12:02;3.60;;;3.60;;
20844;SDS011;10583;49.084;8.646;2022-09-13T04:14:29;3.23;;;3.23;;
20844;SDS011;10583;49.084;8.646;2022-09-13T04:16:57;3.50;;;3.50;;
20844;SDS011;10583;49.084;8.646;2022-09-13T04:19:24;3.47;;;3.47;;
20844;SDS011;10583;49.084;8.646;2022-09-13T04:21:52;3.20;;;3.20;;
20844;SDS011;10583;49.084;8.646;2022-09-13T04:24:22;2.97;;;2.97;;
20844;SDS011;10583;49.084;8.646;2022-09-13T04:26:52;3.30;;;3.30;;
20844;SDS011;10583;49.084;8.646;2022-09-13T04:29:20;3.30;;;3.30;;
20844;SDS011;10583;49.084;8.646;2022-09-13T04:31:48;3.23;;;3.23;;
20844;SDS011;10583;49.084;8.646;2022-09-13T04:34:15;3.50;;;3.50;;
20844;SDS011;10583;49.084;8.646;2022-09-13T04:36:43;4.20;;;4.20;;
20844;SDS011;10583;49.084;8.646;2022-09-13T04:39:10;3.50;;;3.50;;
20844;SDS011;10583;49.084;8.646;2022-09-13T04:41:38;4.23;;;4.23;;
20844;SDS011;10583;49.084;8.646;2022-09-13T04:44:06;3.87;;;3.87;;
20844;SDS011;10583;49.084;8.646;2022-09-13T04:46:33;3.93;;;3.93;;
20844;SDS011;10583;49.084;8.646;2022-09-13T04:48:59;3.60;;;3.60;;
20844;SDS011;10583;49.084;8.646;2022-09-13T04:51:26;4.93;;;4.93;;
20844;SDS011;10583;49.084;8.646;2022-09-13T04:53:53;4.10;;;4.10;;
20844;SDS011;10583;49.084;8.646;2022-09-13T04:56:21;3.60;;;3.60;;
20844;SDS011;10583;49.084;8.646;2022-09-13T04:58:49;4.00;;;4.00;;
20844;SDS011;10583;49.084;8.646;2022-09-13T05:01:17;4.00;;;4.00;;
20844;SDS011;10583;49.084;8.646;2022-09-13T05:03:44;4.43;;;4.43;;
20844;SDS011;10583;49.084;8.646;2022-09-13T05:06:11;4.20;;;4.20;;
20844;SDS011;10583;49.084;8.646;2022-09-13T05:08:39;3.57;;;3.57;;
20844;SDS011;10583;49.084;8.646;2022-09-13T05:11:06;3.53;;;3.53;;
20844;SDS011;10583;49.084;8.646;2022-09-13T05:13:33;4.30;;;4.30;;
20844;SDS011;10583;49.084;8.646;2022-09-13T05:16:00;4.40;;;4.40;;
20844;SDS011;10583;49.084;8.646;2022-09-13T05:18:31;4.00;;;4.00;;
20844;SDS011;10583;49.084;8.646;2022-09-13T05:20:59;4.63;;;4.63;;
20844;SDS011;10583;49.084;8.646;2022-09-13T05:23:27;3.70;;;3.70;;
20844;SDS011;10583;49.084;8.646;2022-09-13T05:25:55;3.67;;;3.67;;
20844;SDS011;10583;49.084;8.646;2022-09-13T05:28:22;4.13;;;4.13;;
20844;SDS011;10583;49.084;8.646;2022-09-13T05:30:53;3.70;;;3.70;;
20844;SDS011;10583;49.084;8.646;2022-09-13T05:33:21;3.50;;;3.50;;
20844;SDS011;10583;49.084;8.646;2022-09-13T05:35:49;3.67;;;3.67;;
20844;SDS011;10583;49.084;8.646;2022-09-13T05:38:16;3.97;;;3.97;;
20844;SDS011;10583;49.084;8.646;2022-09-13T05:40:43;4.20;;;4.20;;
20844;SDS011;10583;49.084;8.646;2022-09-13T05:43:09;3.87;;;3.87;;
20844;SDS011;10583;49.084;8.646;2022-09-13T05:45:36;3.70;;;3.70;;
20844;SDS011;10583;49.084;8.646;2022-09-13T05:48:03;3.70;;;3.70;;
20844;SDS011;10583;49.084;8.646;2022-09-13T05:50:30;3.63;;;3.63;;
20844;SDS011;10583;49.084;8.646;2022-09-13T05:52:58;3.57;;;3.57;;
20844;SDS011;10583;49.084;8.646;2022-09-13T05:55:24;3.40;;;3.40;;
20844;SDS011;10583;49.084;8.646;2022-09-13T05:57:51;3.90;;;3.90;;
20844;SDS011;10583;49.084;8.646;2022-09-13T06:00:18;4.03;;;4.03;;
20844;SDS011;10583;49.084;8.646;2022-09-13T06:02:45;4.00;;;4.00;;
20844;SDS011;10583;49.084;8.646;2022-09-13T06:05:11;3.80;;;3.80;;
20844;SDS011;10583;49.084;8.646;2022-09-13T06:07:38;3.70;;;3.70;;
20844;SDS011;10583;49.084;8.646;2022-09-13T06:10:08;3.77;;;3.77;;
20844;SDS011;10583;49.084;8.646;2022-09-13T06:12:35;3.97;;;3.97;;
20844;SDS011;10583;49.084;8.646;2022-09-13T06:15:02;4.10;;;4.10;;
20844;SDS011;10583;49.084;8.646;2022-09-13T06:17:29;3.70;;;3.70;;
20844;SDS011;10583;49.084;8.646;2022-09-13T06:19:56;4.40;;;4.40;;
20844;SDS011;10583;49.084;8.646;2022-09-13T06:22:23;3.73;;;3.73;;
20844;SDS011;10583;49.084;8.646;2022-09-13T06:24:49;4.23;;;4.23;;
20844;SDS011;10583;49.084;8.646;2022-09-13T06:27:17;4.60;;;4.60;;
20844;SDS011;10583;49.084;8.646;2022-09-13T06:29:44;4.73;;;4.73;;
20844;SDS011;10583;49.084;8.646;2022-09-13T06:32:11;5.70;;;5.70;;
20844;SDS011;10583;49.084;8.646;2022-09-13T06:34:37;4.67;;;4.67;;
20844;SDS011;10583;49.084;8.646;2022-09-13T06:37:04;5.03;;;5.03;;
20844;SDS011;10583;49.084;8.646;2022-09-13T06:39:31;5.37;;;5.37;;
20844;SDS011;10583;49.084;8.646;2022-09-13T06:41:58;4.97;;;4.97;;
20844;SDS011;10583;49.084;8.646;2022-09-13T06:44:26;4.90;;;4.90;;
20844;SDS011;10583;49.084;8.646;2022-09-13T06:46:53;4.73;;;4.73;;
20844;SDS011;10583;49.084;8.646;2022-09-13T06:49:19;4.70;;;4.70;;
20844;SDS011;10583;49.084;8.646;2022-09-13T06:51:46;4.20;;;4.20;;
20844;SDS011;10583;49.084;8.646;2022-09-13T06:54:13;5.07;;;5.07;;
20844;SDS011;10583;49.084;8.646;2022-09-13T06:56:39;5.03;;;5.03;;
20844;SDS011;10583;49.084;8.646;2022-09-13T06:59:07;4.70;;;4.70;;
20844;SDS011;10583;49.084;8.646;2022-09-13T07:01:37;4.53;;;4.53;;
20844;SDS011;10583;49.084;8.646;2022-09-13T07:04:05;4.30;;;4.30;;
20844;SDS011;10583;49.084;8.646;2022-09-13T07:06:34;5.27;;;5.27;;
20844;SDS011;10583;49.084;8.646;2022-09-13T07:09:03;4.80;;;4.80;;
20844;SDS011;10583;49.084;8.646;2022-09-13T07:11:33;4.53;;;4.53;;
20844;SDS011;10583;49.084;8.646;2022-09-13T07:14:01;3.50;;;3.50;;
20844;SDS011;10583;49.084;8.646;2022-09-13T07:16:28;4.00;;;4.00;;
20844;SDS011;10583;49.084;8.646;2022-09-13T07:18:58;4.47;;;4.47;;
20844;SDS011;10583;49.084;8.646;2022-09-13T07:21:26;4.03;;;4.03;;
20844;SDS011;10583;49.084;8.646;2022-09-13T07:23:54;4.07;;;4.07;;
20844;SDS011;10583;49.084;8.646;2022-09-13T07:26:21;3.60;;;3.60;;
20844;SDS011;10583;49.084;8.646;2022-09-13T07:28:49;4.10;;;4.10;;
20844;SDS011;10583;49.084;8.646;2022-09-13T07:31:18;3.97;;;3.97;;
20844;SDS011;10583;49.084;8.646;2022-09-13T07:33:46;3.90;;;3.90;;
20844;SDS011;10583;49.084;8.646;2022-09-13T07:36:19;3.30;;;3.30;;
20844;SDS011;10583;49.084;8.646;2022-09-13T07:38:46;4.23;;;4.23;;
20844;SDS011;10583;49.084;8.646;2022-09-13T07:41:14;3.90;;;3.90;;
20844;SDS011;10583;49.084;8.646;2022-09-13T07:43:42;3.60;;;3.60;;
20844;SDS011;10583;49.084;8.646;2022-09-13T07:46:10;3.77;;;3.77;;
20844;SDS011;10583;49.084;8.646;2022-09-13T07:48:39;3.60;;;3.60;;
20844;SDS011;10583;49.084;8.646;2022-09-13T07:51:07;3.77;;;3.77;;
20844;SDS011;10583;49.084;8.646;2022-09-13T07:53:38;3.60;;;3.60;;
20844;SDS011;10583;49.084;8.646;2022-09-13T07:56:06;3.83;;;3.83;;
20844;SDS011;10583;49.084;8.646;2022-09-13T07:58:34;4.00;;;4.00;;
20844;SDS011;10583;49.084;8.646;2022-09-13T08:01:03;3.53;;;3.53;;
20844;SDS011;10583;49.084;8.646;2022-09-13T08:03:32;3.37;;;3.37;;
20844;SDS011;10583;49.084;8.646;2022-09-13T08:05:59;3.67;;;3.67;;
20844;SDS011;10583;49.084;8.646;2022-09-13T08:08:27;3.07;;;3.07;;
20844;SDS011;10583;49.084;8.646;2022-09-13T08:10:55;4.00;;;4.00;;
20844;SDS011;10583;49.084;8.646;2022-09-13T08:13:22;3.70;;;3.70;;
20844;SDS011;10583;49.084;8.646;2022-09-13T08:15:49;3.50;;;3.50;;
20844;SDS011;10583;49.084;8.646;2022-09-13T08:18:15;3.60;;;3.60;;
20844;SDS011;10583;49.084;8.646;2022-09-13T08:20:42;3.83;;;3.83;;
20844;SDS011;10583;49.084;8.646;2022-09-13T08:23:09;3.20;;;3.20;;
20844;SDS011;10583;49.084;8.646;2022-09-13T08:25:37;3.43;;;3.43;;
20844;SDS011;10583;49.084;8.646;2022-09-13T08:28:05;3.50;;;3.50;;
20844;SDS011;10583;49.084;8.646;2022-09-13T08:30:33;2.80;;;2.80;;
20844;SDS011;10583;49.084;8.646;2022-09-13T08:33:02;2.70;;;2.70;;
20844;SDS011;10583;49.084;8.646;2022-09-13T08:35:30;2.73;;;2.73;;
20844;SDS011;10583;49.084;8.646;2022-09-13T08:37:57;2.67;;;2.67;;
20844;SDS011;10583;49.084;8.646;2022-09-13T08:40:25;2.47;;;2.47;;
20844;SDS011;10583;49.084;8.646;2022-09-13T08:42:55;2.40;;;2.40;;
20844;SDS011;10583;49.084;8.646;2022-09-13T08:45:31;2.23;;;2.23;;
20844;SDS011;10583;49.084;8.646;2022-09-13T08:48:00;2.30;;;2.30;;
20844;SDS011;10583;49.084;8.646;2022-09-13T08:50:32;2.27;;;2.27;;
20844;SDS011;10583;49.084;8.646;2022-09-13T08:53:05;1.90;;;1.90;;
20844;SDS011;10583;49.084;8.646;2022-09-13T08:55:53;2.10;;;2.10;;
20844;SDS011;10583;49.084;8.646;2022-09-13T08:58:29;2.13;;;2.13;;
20844;SDS011;10583;49.084;8.646;2022-09-13T09:01:07;2.30;;;2.30;;
20844;SDS011;10583;49.084;8.646;2022-09-13T09:03:43;1.93;;;1.93;;
20844;SDS011;10583;49.084;8.646;2022-09-13T09:06:14;1.60;;;1.60;;
20844;SDS011;10583;49.084;8.646;2022-09-13T09:08:42;1.60;;;1.60;;
20844;SDS011;10583;49.084;8.646;2022-09-13T09:11:14;1.80;;;1.80;;
20844;SDS011;10583;49.084;8.646;2022-09-13T09:13:49;1.60;;;1.60;;
20844;SDS011;10583;49.084;8.646;2022-09-13T09:16:25;1.90;;;1.90;;
20844;SDS011;10583;49.084;8.646;2022-09-13T09:18:58;2.10;;;2.10;;
20844;SDS011;10583;49.084;8.646;2022-09-13T09:21:32;1.80;;;1.80;;
20844;SDS011;10583;49.084;8.646;2022-09-13T09:23:59;2.08;;;2.08;;
20844;SDS011;10583;49.084;8.646;2022-09-13T09:26:28;1.98;;;1.98;;
20844;SDS011;10583;49.084;8.646;2022-09-13T09:28:57;2.00;;;2.00;;
20844;SDS011;10583;49.084;8.646;2022-09-13T09:31:27;1.80;;;1.80;;
20844;SDS011;10583;49.084;8.646;2022-09-13T09:34:04;2.10;;;2.10;;
20844;SDS011;10583;49.084;8.646;2022-09-13T09:36:42;2.00;;;2.00;;
20844;SDS011;10583;49.084;8.646;2022-09-13T09:39:13;2.10;;;2.10;;
20844;SDS011;10583;49.084;8.646;2022-09-13T09:41:41;1.85;;;1.85;;
20844;SDS011;10583;49.084;8.646;2022-09-13T09:44:15;1.73;;;1.73;;
20844;SDS011;10583;49.084;8.646;2022-09-13T09:46:45;2.20;;;2.20;;
20844;SDS011;10583;49.084;8.646;2022-09-13T09:49:16;1.95;;;1.95;;
20844;SDS011;10583;49.084;8.646;2022-09-13T09:52:05;1.80;;;1.80;;
20844;SDS011;10583;49.084;8.646;2022-09-13T09:54:34;1.77;;;1.77;;
20844;SDS011;10583;49.084;8.646;2022-09-13T09:57:03;1.50;;;1.50;;
20844;SDS011;10583;49.084;8.646;2022-09-13T09:59:31;1.77;;;1.77;;
20844;SDS011;10583;49.084;8.646;2022-09-13T10:01:59;1.50;;;1.50;;
20844;SDS011;10583;49.084;8.646;2022-09-13T10:04:31;1.75;;;1.75;;
20844;SDS011;10583;49.084;8.646;2022-09-13T10:07:08;2.20;;;2.20;;
20844;SDS011;10583;49.084;8.646;2022-09-13T10:09:50;2.00;;;2.00;;
20844;SDS011;10583;49.084;8.646;2022-09-13T10:12:24;1.67;;;1.67;;
20844;SDS011;10583;49.084;8.646;2022-09-13T10:14:52;2.00;;;2.00;;
20844;SDS011;10583;49.084;8.646;2022-09-13T10:17:40;1.73;;;1.73;;
20844;SDS011;10583;49.084;8.646;2022-09-13T10:20:18;1.80;;;1.80;;
20844;SDS011;10583;49.084;8.646;2022-09-13T10:23:06;1.70;;;1.70;;
20844;SDS011;10583;49.084;8.646;2022-09-13T10:25:43;1.65;;;1.65;;
20844;SDS011;10583;49.084;8.646;2022-09-13T10:28:19;1.70;;;1.70;;
20844;SDS011;10583;49.084;8.646;2022-09-13T10:30:47;1.80;;;1.80;;
20844;SDS011;10583;49.084;8.646;2022-09-13T10:33:22;1.42;;;1.42;;
20844;SDS011;10583;49.084;8.646;2022-09-13T10:35:52;1.48;;;1.48;;
20844;SDS011;10583;49.084;8.646;2022-09-13T10:38:23;1.48;;;1.48;;
20844;SDS011;10583;49.084;8.646;2022-09-13T10:40:54;1.48;;;1.48;;
20844;SDS011;10583;49.084;8.646;2022-09-13T10:43:22;1.60;;;1.60;;
20844;SDS011;10583;49.084;8.646;2022-09-13T10:45:51;1.08;;;1.08;;
20844;SDS011;10583;49.084;8.646;2022-09-13T10:48:18;1.40;;;1.40;;
20844;SDS011;10583;49.084;8.646;2022-09-13T10:51:06;1.25;;;1.25;;
20844;SDS011;10583;49.084;8.646;2022-09-13T10:53:40;2.72;;;2.63;;
20844;SDS011;10583;49.084;8.646;2022-09-13T10:56:17;1.70;;;1.70;;
20844;SDS011;10583;49.084;8.646;2022-09-13T10:58:45;1.80;;;1.80;;
20844;SDS011;10583;49.084;8.646;2022-09-13T11:01:17;1.85;;;1.85;;
20844;SDS011;10583;49.084;8.646;2022-09-13T11:04:18;1.90;;;1.90;;
20844;SDS011;10583;49.084;8.646;2022-09-13T11:07:24;1.90;;;1.90;;
20844;SDS011;10583;49.084;8.646;2022-09-13T11:10:01;1.40;;;1.40;;
20844;SDS011;10583;49.084;8.646;2022-09-13T11:12:34;1.80;;;1.80;;
20844;SDS011;10583;49.084;8.646;2022-09-13T11:15:09;1.52;;;1.52;;
20844;SDS011;10583;49.084;8.646;2022-09-13T11:17:57;1.40;;;1.40;;
20844;SDS011;10583;49.084;8.646;2022-09-13T11:20:42;1.67;;;1.67;;
20844;SDS011;10583;49.084;8.646;2022-09-13T11:23:27;1.50;;;1.50;;
20844;SDS011;10583;49.084;8.646;2022-09-13T11:26:11;1.80;;;1.80;;
20844;SDS011;10583;49.084;8.646;2022-09-13T11:28:58;1.30;;;1.30;;
20844;SDS011;10583;49.084;8.646;2022-09-13T11:31:34;1.48;;;1.48;;
20844;SDS011;10583;49.084;8.646;2022-09-13T11:37:08;1.58;;;1.58;;
20844;SDS011;10583;49.084;8.646;2022-09-13T11:40:00;1.80;;;1.80;;
20844;SDS011;10583;49.084;8.646;2022-09-13T11:42:42;1.48;;;1.48;;
20844;SDS011;10583;49.084;8.646;2022-09-13T11:45:18;1.67;;;1.67;;
20844;SDS011;10583;49.084;8.646;2022-09-13T11:47:53;1.40;;;1.40;;
20844;SDS011;10583;49.084;8.646;2022-09-13T11:50:41;1.45;;;1.45;;
20844;SDS011;10583;49.084;8.646;2022-09-13T11:53:23;1.40;;;1.40;;
20844;SDS011;10583;49.084;8.646;2022-09-13T11:56:11;1.40;;;1.40;;
20844;SDS011;10583;49.084;8.646;2022-09-13T11:58:43;1.33;;;1.33;;
20844;SDS011;10583;49.084;8.646;2022-09-13T12:01:16;1.40;;;1.40;;
20844;SDS011;10583;49.084;8.646;2022-09-13T12:03:49;1.80;;;1.80;;
20844;SDS011;10583;49.084;8.646;2022-09-13T12:06:23;1.50;;;1.50;;
20844;SDS011;10583;49.084;8.646;2022-09-13T12:08:53;1.65;;;1.65;;
20844;SDS011;10583;49.084;8.646;2022-09-13T12:11:26;1.40;;;1.40;;
20844;SDS011;10583;49.084;8.646;2022-09-13T12:13:58;1.20;;;1.20;;
20844;SDS011;10583;49.084;8.646;2022-09-13T12:16:29;1.20;;;1.20;;
20844;SDS011;10583;49.084;8.646;2022-09-13T12:18:58;1.55;;;1.55;;
20844;SDS011;10583;49.084;8.646;2022-09-13T12:21:29;1.27;;;1.27;;
20844;SDS011;10583;49.084;8.646;2022-09-13T12:24:01;2.45;;;2.35;;
20844;SDS011;10583;49.084;8.646;2022-09-13T12:26:34;1.50;;;1.50;;
20844;SDS011;10583;49.084;8.646;2022-09-13T12:29:06;1.50;;;1.50;;
20844;SDS011;10583;49.084;8.646;2022-09-13T12:31:39;1.40;;;1.40;;
20844;SDS011;10583;49.084;8.646;2022-09-13T12:34:06;1.50;;;1.50;;
20844;SDS011;10583;49.084;8.646;2022-09-13T12:36:48;1.30;;;1.30;;
20844;SDS011;10583;49.084;8.646;2022-09-13T12:39:30;1.25;;;1.25;;
20844;SDS011;10583;49.084;8.646;2022-09-13T12:42:19;1.23;;;1.23;;
20844;SDS011;10583;49.084;8.646;2022-09-13T12:48:07;1.30;;;1.30;;
20844;SDS011;10583;49.084;8.646;2022-09-13T12:50:49;1.27;;;1.27;;
20844;SDS011;10583;49.084;8.646;2022-09-13T12:53:29;1.52;;;1.52;;
20844;SDS011;10583;49.084;8.646;2022-09-13T12:56:29;1.10;;;1.10;;
20844;SDS011;10583;49.084;8.646;2022-09-13T12:59:11;1.20;;;1.20;;
20844;SDS011;10583;49.084;8.646;2022-09-13T13:01:59;1.20;;;1.20;;
20844;SDS011;10583;49.084;8.646;2022-09-13T13:04:29;0.98;;;0.98;;
20844;SDS011;10583;49.084;8.646;2022-09-13T13:06:58;1.40;;;1.40;;
20844;SDS011;10583;49.084;8.646;2022-09-13T13:09:30;0.98;;;0.98;;
20844;SDS011;10583;49.084;8.646;2022-09-13T13:12:05;1.42;;;1.42;;
20844;SDS011;10583;49.084;8.646;2022-09-13T13:14:44;1.20;;;1.20;;
20844;SDS011;10583;49.084;8.646;2022-09-13T13:23:03;1.30;;;1.30;;
20844;SDS011;10583;49.084;8.646;2022-09-13T13:25:52;1.20;;;1.20;;
20844;SDS011;10583;49.084;8.646;2022-09-13T13:34:40;1.23;;;1.23;;
20844;SDS011;10583;49.084;8.646;2022-09-13T13:37:29;1.35;;;1.35;;
20844;SDS011;10583;49.084;8.646;2022-09-13T13:40:18;1.42;;;1.42;;
20844;SDS011;10583;49.084;8.646;2022-09-13T13:42:47;1.20;;;1.20;;
20844;SDS011;10583;49.084;8.646;2022-09-13T13:45:22;1.30;;;1.30;;
20844;SDS011;10583;49.084;8.646;2022-09-13T13:53:48;1.35;;;1.35;;
20844;SDS011;10583;49.084;8.646;2022-09-13T13:56:18;1.20;;;1.20;;
20844;SDS011;10583;49.084;8.646;2022-09-13T13:58:49;1.10;;;1.10;;
20844;SDS011;10583;49.084;8.646;2022-09-13T14:01:22;1.15;;;1.15;;
20844;SDS011;10583;49.084;8.646;2022-09-13T14:04:17;1.00;;;1.00;;
20844;SDS011;10583;49.084;8.646;2022-09-13T14:07:09;0.90;;;0.90;;
20844;SDS011;10583;49.084;8.646;2022-09-13T14:09:43;0.93;;;0.93;;
20844;SDS011;10583;49.084;8.646;2022-09-13T14:12:19;1.10;;;1.10;;
20844;SDS011;10583;49.084;8.646;2022-09-13T14:15:02;1.00;;;1.00;;
20844;SDS011;10583;49.084;8.646;2022-09-13T14:17:56;1.02;;;1.02;;
20844;SDS011;10583;49.084;8.646;2022-09-13T14:20:57;1.02;;;1.02;;
20844;SDS011;10583;49.084;8.646;2022-09-13T14:23:26;1.10;;;1.10;;
20844;SDS011;10583;49.084;8.646;2022-09-13T14:25:53;0.98;;;0.98;;
20844;SDS011;10583;49.084;8.646;2022-09-13T14:28:22;0.88;;;0.88;;
20844;SDS011;10583;49.084;8.646;2022-09-13T14:30:51;1.33;;;1.33;;
20844;SDS011;10583;49.084;8.646;2022-09-13T14:33:21;0.80;;;0.80;;
20844;SDS011;10583;49.084;8.646;2022-09-13T14:35:55;0.95;;;0.95;;
20844;SDS011;10583;49.084;8.646;2022-09-13T14:38:26;0.80;;;0.80;;
20844;SDS011;10583;49.084;8.646;2022-09-13T14:40:58;0.80;;;0.80;;
20844;SDS011;10583;49.084;8.646;2022-09-13T14:43:28;1.00;;;1.00;;
20844;SDS011;10583;49.084;8.646;2022-09-13T14:45:58;0.90;;;0.90;;
20844;SDS011;10583;49.084;8.646;2022-09-13T14:48:30;1.10;;;1.10;;
20844;SDS011;10583;49.084;8.646;2022-09-13T14:51:01;0.93;;;0.93;;
20844;SDS011;10583;49.084;8.646;2022-09-13T14:53:34;0.70;;;0.70;;
20844;SDS011;10583;49.084;8.646;2022-09-13T14:56:02;0.80;;;0.80;;
20844;SDS011;10583;49.084;8.646;2022-09-13T14:58:32;0.82;;;0.82;;
20844;SDS011;10583;49.084;8.646;2022-09-13T15:01:04;0.88;;;0.88;;
20844;SDS011;10583;49.084;8.646;2022-09-13T15:03:33;0.60;;;0.60;;
20844;SDS011;10583;49.084;8.646;2022-09-13T15:06:01;0.95;;;0.95;;
20844;SDS011;10583;49.084;8.646;2022-09-13T15:08:41;1.05;;;1.05;;
20844;SDS011;10583;49.084;8.646;2022-09-13T15:11:15;0.93;;;0.93;;
20844;SDS011;10583;49.084;8.646;2022-09-13T15:13:59;1.02;;;1.02;;
20844;SDS011;10583;49.084;8.646;2022-09-13T15:16:27;0.98;;;0.98;;
20844;SDS011;10583;49.084;8.646;2022-09-13T15:19:15;0.90;;;0.90;;
20844;SDS011;10583;49.084;8.646;2022-09-13T15:21:51;0.80;;;0.80;;
20844;SDS011;10583;49.084;8.646;2022-09-13T15:24:29;0.90;;;0.90;;
20844;SDS011;10583;49.084;8.646;2022-09-13T15:27:01;0.82;;;0.82;;
20844;SDS011;10583;49.084;8.646;2022-09-13T15:29:32;0.88;;;0.88;;
20844;SDS011;10583;49.084;8.646;2022-09-13T15:32:01;0.75;;;0.75;;
20844;SDS011;10583;49.084;8.646;2022-09-13T15:34:29;0.82;;;0.82;;
20844;SDS011;10583;49.084;8.646;2022-09-13T15:37:01;1.00;;;1.00;;
20844;SDS011;10583;49.084;8.646;2022-09-13T15:39:45;0.73;;;0.73;;
20844;SDS011;10583;49.084;8.646;2022-09-13T15:42:13;0.82;;;0.82;;
20844;SDS011;10583;49.084;8.646;2022-09-13T15:44:41;1.25;;;1.25;;
20844;SDS011;10583;49.084;8.646;2022-09-13T15:47:08;0.80;;;0.80;;
20844;SDS011;10583;49.084;8.646;2022-09-13T15:49:37;0.80;;;0.80;;
20844;SDS011;10583;49.084;8.646;2022-09-13T15:52:06;0.93;;;0.93;;